createdAt,value
2022-12-12T04:11:51.128Z,97.01
2022-12-12T04:15:17.745Z,97.46
2022-12-12T04:18:37.014Z,96.78
2022-12-12T04:22:07.390Z,96.81
2022-12-12T04:25:27.948Z,96.81
2022-12-12T04:28:41.875Z,95.89
2022-12-12T04:31:57.595Z,95.52
2022-12-12T04:35:13.852Z,95.44
2022-12-12T04:38:26.090Z,96.01
2022-12-12T04:41:40.031Z,95.95
2022-12-12T04:44:53.646Z,95.47
2022-12-12T04:48:06.769Z,95.03
2022-12-12T04:51:19.940Z,95.92
2022-12-12T04:54:39.498Z,96.33
2022-12-12T04:57:55.029Z,95.60
2022-12-12T05:01:10.855Z,96.16
2022-12-12T05:04:25.788Z,96.79
2022-12-12T05:07:40.238Z,96.76
2022-12-12T05:10:53.318Z,97.40
2022-12-12T05:14:02.947Z,97.64
2022-12-12T05:17:18.193Z,97.16
2022-12-12T05:20:27.881Z,98.06
2022-12-12T05:23:37.577Z,97.69
2022-12-12T05:26:47.208Z,96.57
2022-12-12T05:29:56.861Z,97.01
2022-12-12T05:33:07.743Z,97.04
2022-12-12T05:36:17.895Z,96.79
2022-12-12T05:39:27.554Z,96.12
2022-12-12T05:42:37.267Z,96.31
2022-12-12T05:45:47.280Z,96.89
2022-12-12T05:48:58.400Z,96.37
2022-12-12T05:52:08.325Z,96.22
2022-12-12T05:55:18.245Z,95.76
2022-12-12T05:58:27.910Z,95.69
2022-12-12T08:07:59.256Z,96.14
2022-12-12T08:11:10.866Z,95.38
2022-12-12T08:14:20.576Z,95.28
2022-12-12T08:17:30.293Z,94.37
2022-12-12T08:20:40.755Z,94.69
2022-12-12T08:23:51.879Z,93.89
2022-12-12T08:27:01.520Z,93.61
2022-12-12T08:30:11.951Z,92.98
2022-12-12T08:33:21.827Z,92.69
2022-12-12T08:36:34.799Z,90.99
2022-12-12T08:39:45.824Z,90.68
2022-12-12T08:42:55.591Z,90.69
2022-12-12T08:46:06.681Z,89.71
2022-12-12T08:49:17.123Z,88.93
2022-12-12T08:52:26.750Z,87.83
2022-12-12T08:55:37.692Z,87.94
2022-12-12T08:58:47.713Z,87.82
2022-12-12T09:01:57.656Z,86.87
2022-12-12T09:05:08.125Z,86.61
2022-12-12T09:08:18.060Z,85.87
2022-12-12T09:11:29.916Z,85.41
2022-12-12T09:14:39.665Z,84.94
2022-12-12T09:17:49.321Z,84.04
2022-12-12T09:21:00.051Z,84.09
2022-12-12T09:24:10.074Z,84.16
2022-12-12T09:27:21.076Z,83.32
2022-12-12T09:30:30.709Z,82.94
2022-12-12T09:33:42.860Z,80.72
2022-12-12T09:36:52.624Z,81.31
2022-12-12T09:40:02.365Z,81.41
2022-12-12T09:43:17.125Z,80.62
2022-12-12T09:46:35.386Z,78.95
2022-12-12T09:49:49.800Z,77.49
2022-12-12T09:53:04.107Z,78.02
2022-12-12T09:56:21.005Z,76.46
2022-12-12T09:59:41.545Z,76.44
2022-12-12T10:03:07.879Z,75.91
2022-12-12T10:06:37.562Z,75.90
2022-12-12T10:09:58.590Z,75.61
2022-12-12T10:13:15.849Z,75.77
2022-12-12T10:16:29.651Z,75.39
2022-12-12T10:19:47.208Z,75.91
2022-12-12T10:23:03.012Z,75.07
2022-12-12T10:26:17.506Z,74.85
2022-12-12T10:29:28.445Z,75.14
2022-12-12T10:32:49.768Z,74.53
2022-12-12T10:36:07.473Z,73.86
2022-12-12T10:39:25.235Z,73.47
2022-12-12T10:42:42.164Z,73.24
2022-12-12T10:46:07.743Z,73.19
2022-12-12T10:49:21.299Z,73.47
2022-12-12T10:52:30.972Z,73.47
2022-12-12T10:55:47.748Z,72.89
2022-12-12T10:58:59.083Z,73.09
2022-12-12T11:02:26.206Z,73.27
2022-12-12T11:05:40.053Z,73.25
2022-12-12T11:08:54.968Z,73.63
2022-12-12T11:12:14.067Z,71.77
2022-12-12T11:15:30.480Z,72.14
2022-12-12T11:18:40.387Z,72.50
2022-12-12T11:21:52.961Z,72.09
2022-12-12T11:25:02.647Z,72.78
2022-12-12T11:28:22.530Z,71.38
2022-12-12T11:31:34.829Z,71.04
2022-12-12T11:34:48.215Z,70.91
2022-12-12T11:38:04.305Z,70.72
2022-12-12T11:41:14.129Z,69.63
2022-12-12T11:44:25.735Z,70.92
2022-12-12T11:47:40.867Z,72.39
2022-12-12T11:50:50.634Z,71.54
2022-12-12T11:54:02.610Z,71.44
2022-12-12T11:57:17.841Z,71.04
2022-12-12T12:00:38.963Z,71.53
2022-12-12T12:04:09.032Z,69.84
2022-12-12T12:07:34.319Z,70.54
2022-12-12T12:11:01.145Z,70.16
2022-12-12T12:14:27.010Z,70.14
2022-12-12T12:17:58.806Z,71.01
2022-12-12T12:21:24.027Z,70.06
2022-12-12T12:24:49.910Z,70.21
2022-12-12T12:28:22.977Z,69.82
2022-12-12T12:31:45.318Z,69.34
2022-12-12T12:35:09.117Z,70.45
2022-12-12T12:38:26.853Z,69.57
2022-12-12T12:41:50.463Z,69.93
2022-12-12T12:45:08.575Z,69.92
2022-12-12T12:48:22.655Z,70.74
2022-12-12T12:51:37.613Z,71.27
2022-12-12T12:54:49.219Z,71.76
2022-12-12T12:58:01.884Z,71.25
2022-12-12T13:01:17.409Z,69.73
2022-12-12T13:04:32.733Z,69.76
2022-12-12T13:07:49.398Z,69.74
2022-12-12T13:11:05.044Z,70.37
2022-12-12T13:14:20.167Z,70.20
2022-12-12T13:17:43.166Z,71.43
2022-12-12T13:20:58.112Z,71.43
2022-12-12T13:24:18.292Z,72.50
2022-12-12T13:27:32.705Z,73.08
2022-12-12T13:30:59.714Z,72.75
2022-12-12T13:34:16.884Z,73.51
2022-12-12T13:37:27.582Z,73.41
2022-12-12T13:40:41.362Z,74.63
2022-12-12T13:43:57.069Z,75.57
2022-12-12T13:47:13.891Z,77.21
2022-12-12T13:50:25.006Z,76.75
2022-12-12T13:53:34.752Z,77.26
2022-12-12T13:56:45.774Z,77.76
2022-12-12T14:00:21.351Z,77.87
2022-12-12T14:03:31.718Z,78.64
2022-12-12T14:06:43.152Z,79.77
2022-12-12T14:09:57.094Z,80.11
2022-12-12T14:13:19.470Z,81.03
2022-12-12T14:16:29.768Z,82.54
2022-12-12T14:19:40.172Z,82.54
2022-12-12T14:23:11.573Z,82.78
2022-12-12T14:26:45.014Z,82.39
2022-12-12T14:29:54.884Z,82.10
2022-12-12T14:33:18.115Z,82.58
2022-12-12T14:36:56.819Z,83.14
2022-12-12T14:40:19.673Z,84.12
2022-12-12T14:43:35.725Z,83.88
2022-12-12T14:46:45.457Z,84.80
2022-12-12T14:50:11.696Z,84.70
2022-12-12T14:53:24.666Z,85.89
2022-12-12T14:56:40.521Z,85.91
2022-12-12T14:59:51.660Z,85.86
2022-12-12T15:03:01.661Z,86.49
2022-12-12T15:06:27.637Z,86.96
2022-12-12T15:09:38.886Z,86.65
2022-12-12T15:12:49.949Z,86.41
2022-12-12T15:15:59.641Z,87.10
2022-12-12T15:19:15.077Z,86.72
2022-12-12T15:22:28.064Z,86.80
2022-12-12T15:25:42.208Z,87.33
2022-12-12T15:28:53.414Z,87.14
2022-12-12T15:32:06.182Z,87.82
2022-12-12T15:35:20.994Z,87.61
2022-12-12T15:38:31.437Z,87.95
2022-12-12T15:41:41.606Z,88.04
2022-12-12T15:44:53.248Z,88.55
2022-12-12T15:48:04.168Z,88.46
2022-12-12T15:51:18.337Z,88.90
2022-12-12T15:54:30.927Z,89.37
2022-12-12T15:57:46.882Z,90.22
2022-12-12T16:01:06.624Z,90.72
2022-12-12T16:04:25.858Z,90.58
2022-12-12T16:07:37.829Z,91.10
2022-12-12T16:10:53.250Z,92.44
2022-12-12T16:14:03.234Z,93.12
2022-12-12T16:17:19.370Z,93.43
2022-12-12T16:20:30.679Z,94.41
2022-12-12T16:23:42.490Z,95.09
2022-12-12T16:26:52.647Z,94.93
2022-12-12T16:30:02.536Z,94.32
2022-12-12T16:33:23.871Z,94.44
2022-12-12T16:36:39.894Z,94.15
2022-12-12T16:39:51.466Z,94.01
2022-12-12T16:43:10.760Z,94.39
2022-12-12T16:46:23.015Z,94.32
2022-12-12T16:49:34.630Z,94.63
2022-12-12T16:52:44.350Z,95.19
2022-12-12T16:55:55.046Z,94.81
2022-12-12T16:59:04.693Z,94.34
2022-12-12T17:02:19.829Z,94.40
2022-12-12T17:05:32.467Z,94.17
2022-12-12T17:08:42.198Z,94.07
2022-12-12T17:11:51.870Z,95.07
2022-12-12T17:15:01.618Z,97.70
2022-12-12T17:18:11.919Z,99.49
2022-12-12T17:21:23.118Z,100.00
2022-12-12T17:24:32.855Z,100.00
2022-12-12T17:27:42.979Z,100.00
2022-12-12T17:30:53.680Z,100.00
2022-12-12T17:34:04.392Z,100.00
2022-12-12T17:37:15.479Z,100.00
2022-12-12T17:40:25.240Z,100.00
2022-12-12T17:43:35.305Z,100.00
2022-12-12T17:46:45.231Z,100.00
2022-12-12T17:49:54.953Z,99.86
2022-12-12T17:53:06.160Z,99.06
2022-12-12T17:56:17.925Z,99.03
2022-12-12T17:59:27.810Z,98.45
2022-12-12T18:02:40.007Z,98.36
2022-12-12T18:05:49.632Z,97.68
2022-12-12T18:09:01.186Z,98.87
2022-12-12T18:12:10.960Z,99.63
2022-12-12T18:15:20.681Z,100.00
2022-12-12T18:18:32.323Z,100.00
2022-12-12T18:25:13.053Z,100.00
2022-12-12T18:28:22.799Z,100.00
2022-12-12T18:31:33.544Z,98.93
2022-12-12T18:34:43.382Z,98.66
2022-12-12T18:37:53.031Z,98.00
2022-12-12T18:41:05.302Z,97.63
2022-12-12T18:44:16.428Z,98.60
2022-12-12T18:47:26.306Z,98.48
2022-12-12T18:50:36.331Z,98.89
2022-12-12T18:53:47.629Z,99.68
2022-12-12T18:56:58.774Z,100.00
2022-12-12T19:00:10.265Z,100.00
2022-12-12T19:03:20.354Z,100.00
2022-12-12T19:06:34.204Z,100.00
2022-12-12T19:09:46.243Z,100.00
2022-12-12T19:12:57.384Z,99.86
2022-12-12T19:16:09.025Z,99.98
2022-12-12T19:19:18.933Z,99.04
2022-12-12T19:22:45.961Z,98.84
2022-12-12T19:25:56.665Z,98.92
2022-12-12T19:29:11.044Z,99.08
2022-12-12T19:32:23.018Z,99.35
2022-12-12T19:35:36.788Z,99.68
2022-12-12T19:38:47.603Z,99.56
2022-12-12T19:41:57.500Z,99.23
2022-12-12T19:45:10.085Z,98.75
2022-12-12T19:48:20.173Z,98.14
2022-12-12T19:51:32.669Z,98.13
2022-12-12T19:54:43.554Z,98.06
2022-12-12T19:57:53.873Z,97.85
2022-12-12T20:01:10.123Z,97.78
2022-12-12T20:04:22.913Z,98.84
2022-12-12T20:07:33.538Z,99.29
2022-12-12T20:10:44.167Z,99.29
2022-12-12T20:13:56.062Z,98.98
2022-12-12T20:17:07.310Z,99.17
2022-12-12T20:20:17.479Z,99.69
2022-12-12T20:23:27.436Z,99.62
2022-12-12T20:26:39.693Z,100.00
2022-12-12T20:29:50.789Z,99.21
2022-12-12T20:33:02.402Z,98.87
2022-12-12T20:36:14.596Z,99.37
2022-12-12T20:39:25.763Z,98.86
2022-12-12T20:42:35.441Z,99.11
2022-12-12T20:45:45.135Z,98.88
2022-12-12T20:48:57.945Z,99.89
2022-12-12T20:52:07.630Z,100.00
2022-12-12T20:55:17.917Z,100.00
2022-12-12T20:58:27.590Z,100.00
2022-12-12T21:01:38.032Z,100.00
2022-12-12T21:04:49.915Z,100.00
2022-12-12T21:07:59.671Z,100.00
2022-12-12T21:11:10.315Z,100.00
2022-12-12T21:14:20.128Z,100.00
2022-12-12T21:17:30.248Z,100.00
2022-12-12T21:20:44.813Z,100.00
2022-12-12T21:23:55.469Z,100.00
2022-12-12T21:27:05.180Z,100.00
2022-12-12T21:30:14.899Z,100.00
2022-12-12T21:33:26.019Z,100.00
2022-12-12T21:36:37.053Z,100.00
2022-12-12T21:39:50.690Z,100.00
2022-12-12T21:43:00.463Z,99.75
2022-12-12T21:46:13.546Z,100.00
2022-12-12T21:49:27.789Z,100.00
2022-12-12T21:52:41.255Z,100.00
2022-12-12T21:55:50.896Z,99.84
2022-12-12T21:59:01.012Z,98.83
2022-12-12T22:02:13.635Z,98.61
2022-12-12T22:05:23.880Z,98.37
2022-12-12T22:08:34.830Z,98.30
2022-12-12T22:11:49.256Z,98.32
2022-12-12T22:15:01.994Z,98.60
2022-12-12T22:18:11.693Z,98.39
2022-12-12T22:21:22.822Z,98.78
2022-12-12T22:24:33.884Z,98.52
2022-12-12T22:27:43.612Z,98.35
2022-12-12T22:30:53.413Z,98.76
2022-12-12T22:34:05.147Z,99.23
2022-12-12T22:37:14.924Z,99.63
2022-12-12T22:40:25.868Z,99.08
2022-12-12T22:43:36.404Z,98.82
2022-12-12T22:46:47.695Z,98.09
2022-12-12T22:49:57.413Z,98.98
2022-12-12T22:53:07.044Z,99.28
2022-12-12T22:56:18.474Z,99.02
2022-12-12T22:59:28.156Z,99.35
2022-12-12T23:02:38.031Z,98.80
2022-12-12T23:05:47.828Z,98.73
2022-12-12T23:08:59.162Z,98.28
2022-12-12T23:12:10.182Z,97.94
2022-12-12T23:15:20.013Z,97.61
2022-12-12T23:18:29.656Z,97.47
2022-12-12T23:21:39.422Z,96.95
2022-12-12T23:24:49.108Z,96.88
2022-12-12T23:28:00.006Z,96.67
